sensor_id;sensor_type;location;lat;lon;timestamp;P1;durP1;ratioP1;P2;durP2;ratioP2
13079;SDS011;6606;49.154;9.280;2023-02-10T00:00:43;51.83;;;28.07;;
13079;SDS011;6606;49.154;9.280;2023-02-10T00:03:24;52.67;;;29.23;;
13079;SDS011;6606;49.154;9.280;2023-02-10T00:06:06;47.90;;;28.43;;
13079;SDS011;6606;49.154;9.280;2023-02-10T00:08:51;52.90;;;27.57;;
13079;SDS011;6606;49.154;9.280;2023-02-10T00:11:34;57.87;;;30.60;;
13079;SDS011;6606;49.154;9.280;2023-02-10T00:14:33;48.37;;;26.90;;
13079;SDS011;6606;49.154;9.280;2023-02-10T00:17:16;53.43;;;29.33;;
13079;SDS011;6606;49.154;9.280;2023-02-10T00:19:59;57.80;;;32.53;;
13079;SDS011;6606;49.154;9.280;2023-02-10T00:22:40;58.57;;;33.13;;
13079;SDS011;6606;49.154;9.280;2023-02-10T00:25:22;58.00;;;30.40;;
13079;SDS011;6606;49.154;9.280;2023-02-10T00:28:04;59.43;;;31.40;;
13079;SDS011;6606;49.154;9.280;2023-02-10T00:30:47;54.80;;;28.93;;
13079;SDS011;6606;49.154;9.280;2023-02-10T00:33:30;56.77;;;32.70;;
13079;SDS011;6606;49.154;9.280;2023-02-10T00:36:12;58.33;;;29.80;;
13079;SDS011;6606;49.154;9.280;2023-02-10T00:38:55;58.17;;;30.87;;
13079;SDS011;6606;49.154;9.280;2023-02-10T00:41:36;52.00;;;29.07;;
13079;SDS011;6606;49.154;9.280;2023-02-10T00:44:18;56.17;;;30.43;;
13079;SDS011;6606;49.154;9.280;2023-02-10T00:47:00;58.63;;;32.07;;
13079;SDS011;6606;49.154;9.280;2023-02-10T00:49:43;54.73;;;29.63;;
13079;SDS011;6606;49.154;9.280;2023-02-10T00:52:25;60.03;;;33.33;;
13079;SDS011;6606;49.154;9.280;2023-02-10T00:55:07;60.03;;;29.33;;
13079;SDS011;6606;49.154;9.280;2023-02-10T00:57:49;54.67;;;28.60;;
13079;SDS011;6606;49.154;9.280;2023-02-10T01:00:31;53.13;;;28.83;;
13079;SDS011;6606;49.154;9.280;2023-02-10T01:03:12;55.93;;;28.23;;
13079;SDS011;6606;49.154;9.280;2023-02-10T01:05:56;53.57;;;29.17;;
13079;SDS011;6606;49.154;9.280;2023-02-10T01:08:38;51.97;;;27.97;;
13079;SDS011;6606;49.154;9.280;2023-02-10T01:11:20;61.10;;;32.00;;
13079;SDS011;6606;49.154;9.280;2023-02-10T01:14:01;58.70;;;31.17;;
13079;SDS011;6606;49.154;9.280;2023-02-10T01:16:43;55.33;;;31.37;;
13079;SDS011;6606;49.154;9.280;2023-02-10T01:19:25;58.23;;;29.63;;
13079;SDS011;6606;49.154;9.280;2023-02-10T01:22:08;58.13;;;31.07;;
13079;SDS011;6606;49.154;9.280;2023-02-10T01:24:51;60.00;;;30.33;;
13079;SDS011;6606;49.154;9.280;2023-02-10T01:27:33;61.67;;;30.27;;
13079;SDS011;6606;49.154;9.280;2023-02-10T01:30:14;55.20;;;29.93;;
13079;SDS011;6606;49.154;9.280;2023-02-10T01:32:56;52.27;;;29.53;;
13079;SDS011;6606;49.154;9.280;2023-02-10T01:35:38;55.03;;;30.23;;
13079;SDS011;6606;49.154;9.280;2023-02-10T01:38:22;54.57;;;28.67;;
13079;SDS011;6606;49.154;9.280;2023-02-10T01:41:04;50.47;;;28.53;;
13079;SDS011;6606;49.154;9.280;2023-02-10T01:43:57;52.67;;;27.33;;
13079;SDS011;6606;49.154;9.280;2023-02-10T01:46:41;53.57;;;28.20;;
13079;SDS011;6606;49.154;9.280;2023-02-10T01:49:23;63.77;;;30.77;;
13079;SDS011;6606;49.154;9.280;2023-02-10T01:52:07;53.77;;;30.33;;
13079;SDS011;6606;49.154;9.280;2023-02-10T01:54:54;56.30;;;29.23;;
13079;SDS011;6606;49.154;9.280;2023-02-10T01:57:41;49.57;;;27.77;;
13079;SDS011;6606;49.154;9.280;2023-02-10T02:00:25;48.40;;;27.23;;
13079;SDS011;6606;49.154;9.280;2023-02-10T02:03:06;51.00;;;26.30;;
13079;SDS011;6606;49.154;9.280;2023-02-10T02:05:49;52.90;;;27.80;;
13079;SDS011;6606;49.154;9.280;2023-02-10T02:08:34;55.13;;;29.70;;
13079;SDS011;6606;49.154;9.280;2023-02-10T02:11:20;53.37;;;29.20;;
13079;SDS011;6606;49.154;9.280;2023-02-10T02:14:09;56.50;;;29.87;;
13079;SDS011;6606;49.154;9.280;2023-02-10T02:17:02;50.33;;;27.47;;
13079;SDS011;6606;49.154;9.280;2023-02-10T02:19:55;49.63;;;26.30;;
13079;SDS011;6606;49.154;9.280;2023-02-10T02:26:42;53.57;;;28.13;;
13079;SDS011;6606;49.154;9.280;2023-02-10T02:33:21;48.63;;;26.00;;
13079;SDS011;6606;49.154;9.280;2023-02-10T02:36:06;53.27;;;29.30;;
13079;SDS011;6606;49.154;9.280;2023-02-10T02:38:58;52.53;;;29.20;;
13079;SDS011;6606;49.154;9.280;2023-02-10T02:41:40;51.37;;;28.37;;
13079;SDS011;6606;49.154;9.280;2023-02-10T02:44:22;51.83;;;27.43;;
13079;SDS011;6606;49.154;9.280;2023-02-10T02:47:05;50.37;;;27.30;;
13079;SDS011;6606;49.154;9.280;2023-02-10T02:49:57;50.13;;;27.47;;
13079;SDS011;6606;49.154;9.280;2023-02-10T02:52:50;51.87;;;28.37;;
13079;SDS011;6606;49.154;9.280;2023-02-10T02:55:44;49.70;;;26.07;;
13079;SDS011;6606;49.154;9.280;2023-02-10T02:58:43;52.30;;;27.07;;
13079;SDS011;6606;49.154;9.280;2023-02-10T03:01:30;57.63;;;29.83;;
13079;SDS011;6606;49.154;9.280;2023-02-10T03:04:17;59.03;;;31.03;;
13079;SDS011;6606;49.154;9.280;2023-02-10T03:07:01;59.40;;;29.20;;
13079;SDS011;6606;49.154;9.280;2023-02-10T03:09:42;51.50;;;27.97;;
13079;SDS011;6606;49.154;9.280;2023-02-10T03:12:24;51.23;;;28.93;;
13079;SDS011;6606;49.154;9.280;2023-02-10T03:15:06;53.53;;;28.33;;
13079;SDS011;6606;49.154;9.280;2023-02-10T03:17:49;55.03;;;28.77;;
13079;SDS011;6606;49.154;9.280;2023-02-10T03:20:30;47.83;;;27.57;;
13079;SDS011;6606;49.154;9.280;2023-02-10T03:23:13;50.03;;;27.17;;
13079;SDS011;6606;49.154;9.280;2023-02-10T03:25:56;54.33;;;27.13;;
13079;SDS011;6606;49.154;9.280;2023-02-10T03:28:38;60.30;;;32.17;;
13079;SDS011;6606;49.154;9.280;2023-02-10T03:31:20;56.50;;;29.37;;
13079;SDS011;6606;49.154;9.280;2023-02-10T03:34:03;52.47;;;28.43;;
13079;SDS011;6606;49.154;9.280;2023-02-10T03:36:44;47.93;;;27.30;;
13079;SDS011;6606;49.154;9.280;2023-02-10T03:39:27;44.30;;;25.67;;
13079;SDS011;6606;49.154;9.280;2023-02-10T03:42:09;50.97;;;26.07;;
13079;SDS011;6606;49.154;9.280;2023-02-10T03:44:51;55.57;;;28.97;;
13079;SDS011;6606;49.154;9.280;2023-02-10T03:47:33;53.03;;;28.03;;
13079;SDS011;6606;49.154;9.280;2023-02-10T03:50:14;58.30;;;30.40;;
13079;SDS011;6606;49.154;9.280;2023-02-10T03:52:56;49.93;;;27.43;;
13079;SDS011;6606;49.154;9.280;2023-02-10T03:55:39;54.53;;;28.23;;
13079;SDS011;6606;49.154;9.280;2023-02-10T03:58:21;54.90;;;28.93;;
13079;SDS011;6606;49.154;9.280;2023-02-10T04:01:07;48.90;;;27.13;;
13079;SDS011;6606;49.154;9.280;2023-02-10T04:03:50;48.27;;;26.63;;
13079;SDS011;6606;49.154;9.280;2023-02-10T04:06:32;50.07;;;26.53;;
13079;SDS011;6606;49.154;9.280;2023-02-10T04:09:14;53.10;;;29.50;;
13079;SDS011;6606;49.154;9.280;2023-02-10T04:11:57;57.00;;;29.93;;
13079;SDS011;6606;49.154;9.280;2023-02-10T04:14:39;56.37;;;29.50;;
13079;SDS011;6606;49.154;9.280;2023-02-10T04:17:20;52.33;;;29.07;;
13079;SDS011;6606;49.154;9.280;2023-02-10T04:20:02;49.13;;;27.93;;
13079;SDS011;6606;49.154;9.280;2023-02-10T04:22:44;56.03;;;29.40;;
13079;SDS011;6606;49.154;9.280;2023-02-10T04:25:26;45.80;;;25.73;;
13079;SDS011;6606;49.154;9.280;2023-02-10T04:28:09;47.57;;;26.30;;
13079;SDS011;6606;49.154;9.280;2023-02-10T04:30:51;49.87;;;26.23;;
13079;SDS011;6606;49.154;9.280;2023-02-10T04:33:33;49.07;;;25.43;;
13079;SDS011;6606;49.154;9.280;2023-02-10T04:36:15;51.17;;;26.73;;
13079;SDS011;6606;49.154;9.280;2023-02-10T04:38:56;48.00;;;25.63;;
13079;SDS011;6606;49.154;9.280;2023-02-10T04:41:38;47.23;;;25.70;;
13079;SDS011;6606;49.154;9.280;2023-02-10T04:44:21;44.73;;;25.03;;
13079;SDS011;6606;49.154;9.280;2023-02-10T04:47:03;52.47;;;26.87;;
13079;SDS011;6606;49.154;9.280;2023-02-10T04:49:45;48.67;;;25.60;;
13079;SDS011;6606;49.154;9.280;2023-02-10T04:52:27;52.13;;;27.47;;
13079;SDS011;6606;49.154;9.280;2023-02-10T04:55:08;49.47;;;26.53;;
13079;SDS011;6606;49.154;9.280;2023-02-10T04:57:50;54.40;;;28.73;;
13079;SDS011;6606;49.154;9.280;2023-02-10T05:00:33;50.47;;;26.87;;
13079;SDS011;6606;49.154;9.280;2023-02-10T05:03:15;49.30;;;27.07;;
13079;SDS011;6606;49.154;9.280;2023-02-10T05:05:57;51.27;;;27.63;;
13079;SDS011;6606;49.154;9.280;2023-02-10T05:08:39;51.40;;;27.10;;
13079;SDS011;6606;49.154;9.280;2023-02-10T05:11:21;52.87;;;26.70;;
13079;SDS011;6606;49.154;9.280;2023-02-10T05:14:03;44.27;;;24.40;;
13079;SDS011;6606;49.154;9.280;2023-02-10T05:16:46;44.70;;;25.03;;
13079;SDS011;6606;49.154;9.280;2023-02-10T05:19:28;48.47;;;26.10;;
13079;SDS011;6606;49.154;9.280;2023-02-10T05:22:09;44.50;;;24.17;;
13079;SDS011;6606;49.154;9.280;2023-02-10T05:24:51;46.67;;;23.97;;
13079;SDS011;6606;49.154;9.280;2023-02-10T05:27:34;50.00;;;26.87;;
13079;SDS011;6606;49.154;9.280;2023-02-10T05:30:16;47.43;;;25.53;;
13079;SDS011;6606;49.154;9.280;2023-02-10T05:33:00;55.60;;;29.53;;
13079;SDS011;6606;49.154;9.280;2023-02-10T05:35:41;51.93;;;26.13;;
13079;SDS011;6606;49.154;9.280;2023-02-10T05:38:23;56.93;;;29.13;;
13079;SDS011;6606;49.154;9.280;2023-02-10T05:41:06;53.03;;;29.67;;
13079;SDS011;6606;49.154;9.280;2023-02-10T05:43:48;52.63;;;29.30;;
13079;SDS011;6606;49.154;9.280;2023-02-10T05:46:30;51.37;;;28.00;;
13079;SDS011;6606;49.154;9.280;2023-02-10T05:49:13;54.57;;;29.43;;
13079;SDS011;6606;49.154;9.280;2023-02-10T05:51:55;46.87;;;26.13;;
13079;SDS011;6606;49.154;9.280;2023-02-10T05:54:37;55.07;;;28.77;;
13079;SDS011;6606;49.154;9.280;2023-02-10T05:57:20;52.57;;;26.80;;
13079;SDS011;6606;49.154;9.280;2023-02-10T06:00:02;53.63;;;27.53;;
13079;SDS011;6606;49.154;9.280;2023-02-10T06:02:52;47.03;;;26.67;;
13079;SDS011;6606;49.154;9.280;2023-02-10T06:05:35;49.83;;;26.90;;
13079;SDS011;6606;49.154;9.280;2023-02-10T06:08:17;48.63;;;27.10;;
13079;SDS011;6606;49.154;9.280;2023-02-10T06:10:59;51.53;;;27.07;;
13079;SDS011;6606;49.154;9.280;2023-02-10T06:13:40;46.53;;;25.00;;
13079;SDS011;6606;49.154;9.280;2023-02-10T06:16:22;57.87;;;27.17;;
13079;SDS011;6606;49.154;9.280;2023-02-10T06:19:04;55.03;;;26.83;;
13079;SDS011;6606;49.154;9.280;2023-02-10T06:21:47;49.87;;;27.17;;
13079;SDS011;6606;49.154;9.280;2023-02-10T06:24:29;56.63;;;26.37;;
13079;SDS011;6606;49.154;9.280;2023-02-10T06:27:11;56.80;;;29.07;;
13079;SDS011;6606;49.154;9.280;2023-02-10T06:29:54;51.27;;;27.20;;
13079;SDS011;6606;49.154;9.280;2023-02-10T06:32:36;48.63;;;27.57;;
13079;SDS011;6606;49.154;9.280;2023-02-10T06:35:17;58.77;;;29.87;;
13079;SDS011;6606;49.154;9.280;2023-02-10T06:38:00;60.53;;;28.57;;
13079;SDS011;6606;49.154;9.280;2023-02-10T06:40:42;55.30;;;29.27;;
13079;SDS011;6606;49.154;9.280;2023-02-10T06:43:24;52.97;;;28.07;;
13079;SDS011;6606;49.154;9.280;2023-02-10T06:46:06;61.87;;;30.57;;
13079;SDS011;6606;49.154;9.280;2023-02-10T06:48:48;64.30;;;31.77;;
13079;SDS011;6606;49.154;9.280;2023-02-10T06:51:29;61.17;;;31.07;;
13079;SDS011;6606;49.154;9.280;2023-02-10T06:54:12;62.33;;;32.27;;
13079;SDS011;6606;49.154;9.280;2023-02-10T06:56:54;59.40;;;31.37;;
13079;SDS011;6606;49.154;9.280;2023-02-10T06:59:36;54.33;;;28.80;;
13079;SDS011;6606;49.154;9.280;2023-02-10T07:02:18;50.83;;;27.67;;
13079;SDS011;6606;49.154;9.280;2023-02-10T07:04:59;53.50;;;29.57;;
13079;SDS011;6606;49.154;9.280;2023-02-10T07:07:43;50.57;;;26.63;;
13079;SDS011;6606;49.154;9.280;2023-02-10T07:10:26;54.50;;;28.27;;
13079;SDS011;6606;49.154;9.280;2023-02-10T07:13:07;62.40;;;33.27;;
13079;SDS011;6606;49.154;9.280;2023-02-10T07:15:49;61.90;;;34.43;;
13079;SDS011;6606;49.154;9.280;2023-02-10T07:18:31;74.63;;;36.30;;
13079;SDS011;6606;49.154;9.280;2023-02-10T07:21:13;58.23;;;32.50;;
13079;SDS011;6606;49.154;9.280;2023-02-10T07:23:54;52.00;;;29.27;;
13079;SDS011;6606;49.154;9.280;2023-02-10T07:26:37;59.47;;;31.20;;
13079;SDS011;6606;49.154;9.280;2023-02-10T07:29:19;58.77;;;31.63;;
13079;SDS011;6606;49.154;9.280;2023-02-10T07:32:01;59.60;;;30.57;;
13079;SDS011;6606;49.154;9.280;2023-02-10T07:34:43;65.63;;;34.83;;
13079;SDS011;6606;49.154;9.280;2023-02-10T07:37:26;58.43;;;29.87;;
13079;SDS011;6606;49.154;9.280;2023-02-10T07:40:08;56.80;;;28.37;;
13079;SDS011;6606;49.154;9.280;2023-02-10T07:42:52;53.83;;;30.47;;
13079;SDS011;6606;49.154;9.280;2023-02-10T07:45:45;64.10;;;33.97;;
13079;SDS011;6606;49.154;9.280;2023-02-10T07:48:27;53.80;;;28.10;;
13079;SDS011;6606;49.154;9.280;2023-02-10T07:51:08;50.50;;;29.43;;
13079;SDS011;6606;49.154;9.280;2023-02-10T07:53:50;52.67;;;30.27;;
13079;SDS011;6606;49.154;9.280;2023-02-10T07:56:32;60.27;;;31.90;;
13079;SDS011;6606;49.154;9.280;2023-02-10T07:59:15;62.03;;;32.63;;
13079;SDS011;6606;49.154;9.280;2023-02-10T08:01:57;56.63;;;31.23;;
13079;SDS011;6606;49.154;9.280;2023-02-10T08:04:38;57.73;;;32.80;;
13079;SDS011;6606;49.154;9.280;2023-02-10T08:07:20;60.03;;;32.83;;
13079;SDS011;6606;49.154;9.280;2023-02-10T08:10:03;53.37;;;30.97;;
13079;SDS011;6606;49.154;9.280;2023-02-10T08:12:45;61.67;;;35.37;;
13079;SDS011;6606;49.154;9.280;2023-02-10T08:15:28;57.17;;;32.73;;
13079;SDS011;6606;49.154;9.280;2023-02-10T08:18:10;55.93;;;31.10;;
13079;SDS011;6606;49.154;9.280;2023-02-10T08:20:52;54.10;;;30.57;;
13079;SDS011;6606;49.154;9.280;2023-02-10T08:23:33;56.83;;;31.33;;
13079;SDS011;6606;49.154;9.280;2023-02-10T08:26:15;55.50;;;31.37;;
13079;SDS011;6606;49.154;9.280;2023-02-10T08:28:57;58.73;;;35.00;;
13079;SDS011;6606;49.154;9.280;2023-02-10T08:31:41;53.50;;;30.87;;
13079;SDS011;6606;49.154;9.280;2023-02-10T08:34:22;59.73;;;34.50;;
13079;SDS011;6606;49.154;9.280;2023-02-10T08:37:04;53.83;;;32.47;;
13079;SDS011;6606;49.154;9.280;2023-02-10T08:39:46;61.53;;;34.77;;
13079;SDS011;6606;49.154;9.280;2023-02-10T08:42:27;48.30;;;29.67;;
13079;SDS011;6606;49.154;9.280;2023-02-10T08:45:09;49.23;;;29.60;;
13079;SDS011;6606;49.154;9.280;2023-02-10T08:47:52;50.77;;;29.77;;
13079;SDS011;6606;49.154;9.280;2023-02-10T08:50:34;55.90;;;33.73;;
13079;SDS011;6606;49.154;9.280;2023-02-10T08:53:16;58.27;;;34.47;;
13079;SDS011;6606;49.154;9.280;2023-02-10T08:55:58;55.83;;;30.83;;
13079;SDS011;6606;49.154;9.280;2023-02-10T08:58:42;51.73;;;30.43;;
13079;SDS011;6606;49.154;9.280;2023-02-10T09:01:24;55.97;;;33.73;;
13079;SDS011;6606;49.154;9.280;2023-02-10T09:04:08;50.80;;;32.37;;
13079;SDS011;6606;49.154;9.280;2023-02-10T09:06:50;46.33;;;30.47;;
13079;SDS011;6606;49.154;9.280;2023-02-10T09:09:31;52.87;;;31.17;;
13079;SDS011;6606;49.154;9.280;2023-02-10T09:12:18;51.83;;;30.70;;
13079;SDS011;6606;49.154;9.280;2023-02-10T09:15:00;56.97;;;33.20;;
13079;SDS011;6606;49.154;9.280;2023-02-10T09:17:42;52.37;;;33.10;;
13079;SDS011;6606;49.154;9.280;2023-02-10T09:20:25;51.43;;;32.13;;
13079;SDS011;6606;49.154;9.280;2023-02-10T09:23:07;52.83;;;31.73;;
13079;SDS011;6606;49.154;9.280;2023-02-10T09:25:52;58.57;;;32.37;;
13079;SDS011;6606;49.154;9.280;2023-02-10T09:28:34;53.97;;;31.47;;
13079;SDS011;6606;49.154;9.280;2023-02-10T09:31:17;54.63;;;30.90;;
13079;SDS011;6606;49.154;9.280;2023-02-10T09:33:59;59.23;;;32.77;;
13079;SDS011;6606;49.154;9.280;2023-02-10T09:36:46;52.03;;;31.43;;
13079;SDS011;6606;49.154;9.280;2023-02-10T09:39:28;54.00;;;32.50;;
13079;SDS011;6606;49.154;9.280;2023-02-10T09:42:13;58.47;;;34.00;;
13079;SDS011;6606;49.154;9.280;2023-02-10T09:45:09;55.57;;;32.37;;
13079;SDS011;6606;49.154;9.280;2023-02-10T09:47:56;53.47;;;32.63;;
13079;SDS011;6606;49.154;9.280;2023-02-10T09:50:47;50.87;;;31.73;;
13079;SDS011;6606;49.154;9.280;2023-02-10T09:53:37;48.47;;;32.23;;
13079;SDS011;6606;49.154;9.280;2023-02-10T09:56:19;63.33;;;34.33;;
13079;SDS011;6606;49.154;9.280;2023-02-10T09:59:04;52.53;;;32.70;;
13079;SDS011;6606;49.154;9.280;2023-02-10T10:01:48;49.50;;;31.77;;
13079;SDS011;6606;49.154;9.280;2023-02-10T10:04:32;56.07;;;34.00;;
13079;SDS011;6606;49.154;9.280;2023-02-10T10:07:17;51.87;;;32.37;;
13079;SDS011;6606;49.154;9.280;2023-02-10T10:10:08;56.97;;;33.10;;
13079;SDS011;6606;49.154;9.280;2023-02-10T10:12:56;48.83;;;33.40;;
13079;SDS011;6606;49.154;9.280;2023-02-10T10:15:39;53.93;;;31.40;;
13079;SDS011;6606;49.154;9.280;2023-02-10T10:18:29;52.73;;;31.00;;
13079;SDS011;6606;49.154;9.280;2023-02-10T10:21:21;51.90;;;31.63;;
13079;SDS011;6606;49.154;9.280;2023-02-10T10:24:11;59.60;;;33.77;;
13079;SDS011;6606;49.154;9.280;2023-02-10T10:27:10;49.70;;;30.23;;
13079;SDS011;6606;49.154;9.280;2023-02-10T10:30:02;51.57;;;31.70;;
13079;SDS011;6606;49.154;9.280;2023-02-10T10:32:51;49.20;;;32.43;;
13079;SDS011;6606;49.154;9.280;2023-02-10T10:35:38;49.60;;;30.23;;
13079;SDS011;6606;49.154;9.280;2023-02-10T10:38:24;55.17;;;33.60;;
13079;SDS011;6606;49.154;9.280;2023-02-10T10:41:13;46.63;;;30.87;;
13079;SDS011;6606;49.154;9.280;2023-02-10T10:43:57;46.70;;;30.13;;
13079;SDS011;6606;49.154;9.280;2023-02-10T10:46:40;49.67;;;30.27;;
13079;SDS011;6606;49.154;9.280;2023-02-10T10:49:26;49.30;;;32.20;;
13079;SDS011;6606;49.154;9.280;2023-02-10T10:52:16;54.70;;;33.17;;
13079;SDS011;6606;49.154;9.280;2023-02-10T10:55:10;48.23;;;30.30;;
13079;SDS011;6606;49.154;9.280;2023-02-10T10:57:56;48.43;;;31.80;;
13079;SDS011;6606;49.154;9.280;2023-02-10T11:00:48;44.93;;;29.90;;
13079;SDS011;6606;49.154;9.280;2023-02-10T11:03:31;48.07;;;29.77;;
13079;SDS011;6606;49.154;9.280;2023-02-10T11:06:14;44.10;;;28.67;;
13079;SDS011;6606;49.154;9.280;2023-02-10T11:08:58;43.80;;;28.03;;
13079;SDS011;6606;49.154;9.280;2023-02-10T11:11:42;44.43;;;28.90;;
13079;SDS011;6606;49.154;9.280;2023-02-10T11:14:24;43.90;;;28.73;;
13079;SDS011;6606;49.154;9.280;2023-02-10T11:17:19;41.10;;;26.67;;
13079;SDS011;6606;49.154;9.280;2023-02-10T11:20:05;44.23;;;28.20;;
13079;SDS011;6606;49.154;9.280;2023-02-10T11:23:02;44.53;;;27.90;;
13079;SDS011;6606;49.154;9.280;2023-02-10T11:25:45;39.20;;;26.23;;
13079;SDS011;6606;49.154;9.280;2023-02-10T11:28:29;42.07;;;27.47;;
13079;SDS011;6606;49.154;9.280;2023-02-10T11:31:17;36.53;;;25.43;;
13079;SDS011;6606;49.154;9.280;2023-02-10T11:34:13;37.63;;;25.23;;
13079;SDS011;6606;49.154;9.280;2023-02-10T11:37:09;42.60;;;25.47;;
13079;SDS011;6606;49.154;9.280;2023-02-10T11:39:53;36.23;;;24.43;;
13079;SDS011;6606;49.154;9.280;2023-02-10T11:42:45;34.27;;;24.03;;
13079;SDS011;6606;49.154;9.280;2023-02-10T11:45:57;35.43;;;23.33;;
13079;SDS011;6606;49.154;9.280;2023-02-10T11:48:51;34.43;;;23.87;;
13079;SDS011;6606;49.154;9.280;2023-02-10T11:51:36;38.90;;;24.27;;
13079;SDS011;6606;49.154;9.280;2023-02-10T11:54:17;35.03;;;24.07;;
13079;SDS011;6606;49.154;9.280;2023-02-10T11:57:13;35.73;;;24.80;;
13079;SDS011;6606;49.154;9.280;2023-02-10T12:00:21;37.70;;;24.57;;
13079;SDS011;6606;49.154;9.280;2023-02-10T12:03:31;36.07;;;23.73;;
13079;SDS011;6606;49.154;9.280;2023-02-10T12:06:20;36.20;;;23.43;;
13079;SDS011;6606;49.154;9.280;2023-02-10T12:09:13;35.43;;;24.03;;
13079;SDS011;6606;49.154;9.280;2023-02-10T12:12:03;33.27;;;22.97;;
13079;SDS011;6606;49.154;9.280;2023-02-10T12:14:53;32.90;;;23.80;;
13079;SDS011;6606;49.154;9.280;2023-02-10T12:17:45;34.63;;;24.17;;
13079;SDS011;6606;49.154;9.280;2023-02-10T12:20:35;32.13;;;23.43;;
13079;SDS011;6606;49.154;9.280;2023-02-10T12:23:31;33.87;;;23.27;;
13079;SDS011;6606;49.154;9.280;2023-02-10T12:26:26;32.83;;;23.33;;
13079;SDS011;6606;49.154;9.280;2023-02-10T12:29:21;37.07;;;25.43;;
13079;SDS011;6606;49.154;9.280;2023-02-10T12:32:12;33.53;;;23.00;;
13079;SDS011;6606;49.154;9.280;2023-02-10T12:35:11;36.10;;;25.43;;
13079;SDS011;6606;49.154;9.280;2023-02-10T12:38:07;33.03;;;23.27;;
13079;SDS011;6606;49.154;9.280;2023-02-10T12:41:02;34.03;;;23.10;;
13079;SDS011;6606;49.154;9.280;2023-02-10T12:43:57;39.10;;;24.27;;
13079;SDS011;6606;49.154;9.280;2023-02-10T12:46:45;37.40;;;24.53;;
13079;SDS011;6606;49.154;9.280;2023-02-10T12:49:40;34.07;;;23.83;;
13079;SDS011;6606;49.154;9.280;2023-02-10T12:52:32;36.77;;;25.40;;
13079;SDS011;6606;49.154;9.280;2023-02-10T12:55:18;32.43;;;22.93;;
13079;SDS011;6606;49.154;9.280;2023-02-10T12:58:06;33.37;;;23.13;;
13079;SDS011;6606;49.154;9.280;2023-02-10T13:00:58;34.30;;;23.73;;
13079;SDS011;6606;49.154;9.280;2023-02-10T13:03:47;38.63;;;24.03;;
13079;SDS011;6606;49.154;9.280;2023-02-10T13:06:32;32.83;;;23.20;;
13079;SDS011;6606;49.154;9.280;2023-02-10T13:09:19;36.33;;;24.40;;
13079;SDS011;6606;49.154;9.280;2023-02-10T13:12:10;43.77;;;25.13;;
13079;SDS011;6606;49.154;9.280;2023-02-10T13:14:58;33.93;;;23.53;;
13079;SDS011;6606;49.154;9.280;2023-02-10T13:17:48;35.30;;;24.10;;
13079;SDS011;6606;49.154;9.280;2023-02-10T13:20:34;35.23;;;23.87;;
13079;SDS011;6606;49.154;9.280;2023-02-10T13:23:23;34.50;;;25.40;;
13079;SDS011;6606;49.154;9.280;2023-02-10T13:26:17;32.80;;;23.83;;
13079;SDS011;6606;49.154;9.280;2023-02-10T13:29:12;31.40;;;22.20;;
13079;SDS011;6606;49.154;9.280;2023-02-10T13:32:11;32.37;;;23.20;;
13079;SDS011;6606;49.154;9.280;2023-02-10T13:35:52;37.27;;;26.03;;
13079;SDS011;6606;49.154;9.280;2023-02-10T13:38:35;36.40;;;23.20;;
13079;SDS011;6606;49.154;9.280;2023-02-10T13:41:23;32.00;;;21.97;;
13079;SDS011;6606;49.154;9.280;2023-02-10T13:44:27;34.03;;;22.43;;
13079;SDS011;6606;49.154;9.280;2023-02-10T13:47:12;31.87;;;23.17;;
13079;SDS011;6606;49.154;9.280;2023-02-10T13:50:00;32.63;;;23.10;;
13079;SDS011;6606;49.154;9.280;2023-02-10T13:52:50;35.73;;;24.33;;
13079;SDS011;6606;49.154;9.280;2023-02-10T13:55:39;35.13;;;24.30;;
13079;SDS011;6606;49.154;9.280;2023-02-10T14:01:30;33.67;;;23.00;;
13079;SDS011;6606;49.154;9.280;2023-02-10T14:04:26;36.50;;;24.70;;
13079;SDS011;6606;49.154;9.280;2023-02-10T14:07:16;33.53;;;23.20;;
13079;SDS011;6606;49.154;9.280;2023-02-10T14:10:28;33.00;;;23.03;;
13079;SDS011;6606;49.154;9.280;2023-02-10T14:13:20;31.17;;;22.50;;
13079;SDS011;6606;49.154;9.280;2023-02-10T14:16:06;32.37;;;22.73;;
13079;SDS011;6606;49.154;9.280;2023-02-10T14:19:19;34.63;;;23.00;;
13079;SDS011;6606;49.154;9.280;2023-02-10T14:22:03;31.40;;;22.20;;
13079;SDS011;6606;49.154;9.280;2023-02-10T14:24:46;34.27;;;24.30;;
13079;SDS011;6606;49.154;9.280;2023-02-10T14:27:30;33.47;;;24.13;;
13079;SDS011;6606;49.154;9.280;2023-02-10T14:30:15;28.83;;;21.63;;
13079;SDS011;6606;49.154;9.280;2023-02-10T14:33:01;33.70;;;22.70;;
13079;SDS011;6606;49.154;9.280;2023-02-10T14:35:47;32.60;;;22.50;;
13079;SDS011;6606;49.154;9.280;2023-02-10T14:38:31;35.63;;;23.30;;
13079;SDS011;6606;49.154;9.280;2023-02-10T14:41:15;30.70;;;22.83;;
13079;SDS011;6606;49.154;9.280;2023-02-10T14:43:58;33.30;;;23.17;;
13079;SDS011;6606;49.154;9.280;2023-02-10T14:46:40;29.90;;;21.67;;
13079;SDS011;6606;49.154;9.280;2023-02-10T14:49:27;32.67;;;22.60;;
13079;SDS011;6606;49.154;9.280;2023-02-10T14:52:21;32.63;;;21.87;;
13079;SDS011;6606;49.154;9.280;2023-02-10T14:55:21;32.10;;;23.20;;
13079;SDS011;6606;49.154;9.280;2023-02-10T14:58:09;33.77;;;23.03;;
13079;SDS011;6606;49.154;9.280;2023-02-10T15:00:56;30.43;;;21.03;;
13079;SDS011;6606;49.154;9.280;2023-02-10T15:03:40;33.83;;;23.30;;
13079;SDS011;6606;49.154;9.280;2023-02-10T15:06:23;29.63;;;21.63;;
13079;SDS011;6606;49.154;9.280;2023-02-10T15:09:07;31.73;;;21.87;;
13079;SDS011;6606;49.154;9.280;2023-02-10T15:11:57;32.53;;;22.80;;
13079;SDS011;6606;49.154;9.280;2023-02-10T15:14:59;31.97;;;21.97;;
13079;SDS011;6606;49.154;9.280;2023-02-10T15:17:48;31.20;;;22.27;;
13079;SDS011;6606;49.154;9.280;2023-02-10T15:20:33;32.10;;;22.10;;
13079;SDS011;6606;49.154;9.280;2023-02-10T15:23:16;29.43;;;20.70;;
13079;SDS011;6606;49.154;9.280;2023-02-10T15:25:59;28.53;;;19.53;;
13079;SDS011;6606;49.154;9.280;2023-02-10T15:28:56;44.43;;;30.63;;
13079;SDS011;6606;49.154;9.280;2023-02-10T15:31:40;36.67;;;25.63;;
13079;SDS011;6606;49.154;9.280;2023-02-10T15:34:27;32.33;;;22.87;;
13079;SDS011;6606;49.154;9.280;2023-02-10T15:37:16;35.00;;;22.50;;
13079;SDS011;6606;49.154;9.280;2023-02-10T15:40:00;29.80;;;20.07;;
13079;SDS011;6606;49.154;9.280;2023-02-10T15:42:43;29.13;;;21.53;;
13079;SDS011;6606;49.154;9.280;2023-02-10T15:45:37;32.70;;;21.27;;
13079;SDS011;6606;49.154;9.280;2023-02-10T15:48:19;28.17;;;21.87;;
13079;SDS011;6606;49.154;9.280;2023-02-10T15:51:04;31.23;;;21.17;;
13079;SDS011;6606;49.154;9.280;2023-02-10T15:53:46;32.13;;;21.37;;
13079;SDS011;6606;49.154;9.280;2023-02-10T15:56:27;34.83;;;22.93;;
13079;SDS011;6606;49.154;9.280;2023-02-10T15:59:12;35.43;;;20.97;;
13079;SDS011;6606;49.154;9.280;2023-02-10T16:01:56;31.07;;;21.80;;
13079;SDS011;6606;49.154;9.280;2023-02-10T16:04:39;36.07;;;23.73;;
13079;SDS011;6606;49.154;9.280;2023-02-10T16:07:25;37.33;;;24.13;;
13079;SDS011;6606;49.154;9.280;2023-02-10T16:10:09;38.93;;;24.53;;
13079;SDS011;6606;49.154;9.280;2023-02-10T16:12:55;31.67;;;20.33;;
13079;SDS011;6606;49.154;9.280;2023-02-10T16:15:37;35.73;;;22.23;;
13079;SDS011;6606;49.154;9.280;2023-02-10T16:18:34;35.13;;;22.87;;
13079;SDS011;6606;49.154;9.280;2023-02-10T16:21:16;34.67;;;23.10;;
13079;SDS011;6606;49.154;9.280;2023-02-10T16:23:58;33.80;;;21.77;;
13079;SDS011;6606;49.154;9.280;2023-02-10T16:26:43;36.67;;;22.23;;
13079;SDS011;6606;49.154;9.280;2023-02-10T16:29:26;32.87;;;21.47;;
13079;SDS011;6606;49.154;9.280;2023-02-10T16:32:09;34.53;;;23.17;;